createdAt,value
2022-08-09T00:00:11.960Z,16.20
2022-08-09T00:02:49.034Z,16.18
2022-08-09T00:06:17.559Z,16.20
2022-08-09T00:08:11.406Z,16.14
2022-08-09T00:10:58.838Z,16.05
2022-08-09T00:13:27.214Z,15.99
2022-08-09T00:15:59.508Z,16.00
2022-08-09T00:18:35.876Z,15.87
2022-08-09T00:21:04.991Z,15.81
2022-08-09T00:23:55.133Z,15.76
2022-08-09T00:26:29.934Z,15.69
2022-08-09T00:29:02.213Z,15.67
2022-08-09T00:31:57.663Z,15.55
2022-08-09T00:34:19.660Z,15.61
2022-08-09T00:36:48.914Z,15.52
2022-08-09T00:40:09.448Z,15.50
2022-08-09T00:44:19.390Z,15.52
2022-08-09T00:44:56.108Z,15.42
2022-08-09T00:47:25.528Z,15.44
2022-08-09T00:49:56.509Z,15.39
2022-08-09T00:52:30.514Z,15.35
2022-08-09T00:55:01.758Z,15.35
2022-08-09T00:57:34.007Z,15.23
2022-08-09T01:00:21.331Z,15.20
2022-08-09T01:02:54.887Z,15.12
2022-08-09T01:05:53.348Z,15.18
2022-08-09T01:08:28.232Z,15.05
2022-08-09T01:11:15.085Z,15.01
2022-08-09T01:13:59.341Z,15.03
2022-08-09T01:16:33.338Z,14.98
2022-08-09T01:19:28.948Z,14.95
2022-08-09T01:22:37.850Z,14.81
2022-08-09T01:25:25.955Z,14.83
2022-08-09T01:27:58.595Z,14.75
2022-08-09T01:30:28.497Z,14.77
2022-08-09T01:33:03.669Z,14.69
2022-08-09T01:35:39.197Z,14.77
2022-08-09T01:38:15.757Z,14.76
2022-08-09T01:40:52.376Z,14.69
2022-08-09T01:43:24.320Z,14.60
2022-08-09T01:45:58.078Z,14.58
2022-08-09T01:48:31.364Z,14.57
2022-08-09T01:51:00.879Z,14.54
2022-08-09T01:53:41.387Z,14.50
2022-08-09T01:56:11.978Z,14.52
2022-08-09T01:58:44.158Z,14.42
2022-08-09T02:01:18.315Z,14.37
2022-08-09T02:03:48.756Z,14.26
2022-08-09T02:06:45.567Z,14.35
2022-08-09T02:09:42.174Z,14.33
2022-08-09T02:12:18.005Z,14.35
2022-08-09T02:14:52.964Z,14.29
2022-08-09T02:18:09.804Z,14.36
2022-08-09T02:20:26.421Z,14.41
2022-08-09T02:23:08.298Z,14.39
2022-08-09T02:25:42.442Z,14.26
2022-08-09T02:28:24.082Z,14.31
2022-08-09T02:30:59.768Z,14.08
2022-08-09T02:33:37.725Z,14.18
2022-08-09T02:36:10.558Z,14.32
2022-08-09T02:38:47.792Z,14.28
2022-08-09T02:41:21.683Z,14.34
2022-08-09T02:43:55.593Z,14.33
2022-08-09T02:46:28.891Z,14.07
2022-08-09T02:49:02.979Z,14.02
2022-08-09T02:51:40.249Z,13.97
2022-08-09T02:54:14.227Z,13.95
2022-08-09T02:56:51.124Z,13.90
2022-08-09T02:59:22.734Z,13.85
2022-08-09T03:02:05.533Z,13.86
2022-08-09T03:04:35.921Z,13.87
2022-08-09T03:07:13.878Z,13.90
2022-08-09T03:09:43.802Z,13.81
2022-08-09T03:12:24.135Z,13.78
2022-08-09T03:14:53.048Z,13.74
2022-08-09T03:17:26.521Z,13.76
2022-08-09T03:20:03.376Z,13.71
2022-08-09T03:22:42.280Z,13.69
2022-08-09T03:25:26.570Z,13.73
2022-08-09T03:28:03.354Z,13.63
2022-08-09T03:30:33.405Z,13.60
2022-08-09T03:33:13.352Z,13.55
2022-08-09T03:36:13.414Z,13.55
2022-08-09T03:38:41.612Z,13.52
2022-08-09T03:41:10.454Z,13.53
2022-08-09T03:44:03.285Z,13.51
2022-08-09T03:46:32.017Z,13.57
2022-08-09T03:49:07.883Z,13.51
2022-08-09T03:51:55.267Z,13.56
2022-08-09T03:54:29.214Z,13.56
2022-08-09T03:56:58.477Z,13.70
2022-08-09T03:59:53.494Z,13.65
2022-08-09T04:02:15.080Z,13.66
2022-08-09T04:04:49.329Z,13.73
2022-08-09T04:07:19.139Z,13.81
2022-08-09T04:09:50.188Z,13.81
2022-08-09T04:12:39.163Z,13.81
2022-08-09T04:15:16.989Z,14.32
2022-08-09T04:17:57.765Z,15.24
2022-08-09T04:20:27.383Z,16.23
2022-08-09T04:22:57.121Z,17.09
2022-08-09T04:25:27.329Z,17.93
2022-08-09T04:28:02.518Z,18.85
2022-08-09T04:30:32.376Z,19.77
2022-08-09T04:33:01.275Z,20.35
2022-08-09T04:35:32.867Z,21.07
2022-08-09T04:38:03.559Z,21.68
2022-08-09T04:40:45.744Z,22.56
2022-08-09T04:43:14.005Z,23.43
2022-08-09T04:45:53.702Z,23.89
2022-08-09T04:48:23.847Z,24.27
2022-08-09T04:51:02.786Z,24.68
2022-08-09T04:53:31.510Z,25.30
2022-08-09T04:56:00.289Z,25.81
2022-08-09T04:58:29.072Z,25.85
2022-08-09T05:01:00.323Z,27.17
2022-08-09T05:03:40.636Z,28.05
2022-08-09T05:06:27.195Z,27.20
2022-08-09T05:09:00.451Z,27.11
2022-08-09T05:11:32.518Z,28.49
2022-08-09T05:14:06.057Z,28.85
2022-08-09T05:16:58.172Z,29.48
2022-08-09T05:19:25.769Z,29.39
2022-08-09T05:21:56.535Z,29.75
2022-08-09T05:24:24.924Z,29.39
2022-08-09T05:26:53.437Z,29.14
2022-08-09T05:29:23.998Z,29.85
2022-08-09T05:31:57.667Z,31.35
2022-08-09T05:34:31.289Z,32.05
2022-08-09T05:37:06.233Z,31.96
2022-08-09T05:39:42.587Z,31.50
2022-08-09T05:42:17.345Z,32.14
2022-08-09T05:44:50.817Z,32.79
2022-08-09T05:47:19.631Z,33.27
2022-08-09T05:50:30.196Z,33.54
2022-08-09T05:52:39.682Z,34.60
2022-08-09T05:55:09.785Z,35.19
2022-08-09T05:57:55.548Z,35.95
2022-08-09T06:00:25.736Z,35.66
2022-08-09T06:02:56.805Z,36.13
2022-08-09T06:05:50.532Z,35.26
2022-08-09T06:08:19.712Z,37.24
2022-08-09T06:10:53.173Z,36.59
2022-08-09T06:13:21.241Z,35.84
2022-08-09T06:15:51.783Z,37.42
2022-08-09T06:18:24.207Z,35.38
2022-08-09T06:20:57.584Z,36.07
2022-08-09T06:23:57.167Z,37.00
2022-08-09T06:26:20.938Z,36.70
2022-08-09T06:29:00.313Z,37.21
2022-08-09T06:31:39.254Z,34.54
2022-08-09T06:34:22.986Z,36.37
2022-08-09T06:36:59.264Z,36.21
2022-08-09T06:39:48.499Z,36.37
2022-08-09T06:42:19.782Z,36.39
2022-08-09T06:44:51.870Z,38.12
2022-08-09T06:47:23.676Z,37.73
2022-08-09T06:50:14.782Z,38.63
2022-08-09T06:52:45.905Z,38.41
2022-08-09T06:55:17.674Z,39.71
2022-08-09T06:58:01.448Z,39.86
2022-08-09T07:00:49.453Z,39.82
2022-08-09T07:03:27.775Z,41.06
2022-08-09T07:06:04.606Z,40.62
2022-08-09T07:08:35.295Z,40.41
2022-08-09T07:11:07.290Z,41.63
2022-08-09T07:14:04.062Z,40.91
2022-08-09T07:16:42.173Z,41.78
2022-08-09T07:19:15.570Z,41.34
2022-08-09T07:21:57.287Z,42.44
2022-08-09T07:24:31.478Z,42.00
2022-08-09T07:27:03.392Z,39.57
2022-08-09T07:29:42.921Z,42.89
2022-08-09T07:32:11.250Z,43.26
2022-08-09T07:34:39.058Z,43.06
2022-08-09T07:37:15.536Z,43.26
2022-08-09T07:39:43.997Z,44.50
2022-08-09T07:42:16.378Z,43.43
2022-08-09T07:44:52.164Z,43.94
2022-08-09T07:47:23.165Z,44.94
2022-08-09T07:50:04.661Z,43.92
2022-08-09T07:52:36.613Z,43.33
2022-08-09T07:55:09.613Z,43.60
2022-08-09T07:57:47.069Z,43.44
2022-08-09T08:00:20.780Z,45.91
2022-08-09T08:03:05.217Z,44.52
2022-08-09T08:05:53.579Z,45.68
2022-08-09T08:09:00.669Z,45.26
2022-08-09T08:12:09.661Z,44.10
2022-08-09T08:14:01.749Z,42.54
2022-08-09T08:16:31.802Z,43.48
2022-08-09T08:19:03.141Z,43.79
2022-08-09T08:21:32.501Z,44.47
2022-08-09T08:24:01.045Z,43.31
2022-08-09T08:26:54.763Z,43.58
2022-08-09T08:29:20.069Z,41.05
2022-08-09T08:32:04.518Z,41.31
2022-08-09T08:34:36.503Z,42.53
2022-08-09T08:37:05.156Z,40.31
2022-08-09T08:39:43.413Z,40.98
2022-08-09T08:42:12.457Z,43.04
2022-08-09T08:44:43.925Z,42.14
2022-08-09T08:47:16.107Z,41.33
2022-08-09T08:49:48.375Z,39.96
2022-08-09T08:55:07.653Z,35.47
2022-08-09T08:57:37.261Z,35.29
2022-08-09T09:00:17.328Z,37.52
2022-08-09T09:03:08.773Z,35.89
2022-08-09T09:06:00.787Z,34.52
2022-08-09T09:08:37.720Z,34.31
2022-08-09T09:11:08.531Z,35.44
2022-08-09T09:13:47.365Z,34.84
2022-08-09T09:16:30.369Z,34.10
2022-08-09T09:19:22.594Z,36.05
2022-08-09T09:22:04.985Z,36.24
2022-08-09T09:24:35.326Z,34.75
2022-08-09T09:27:07.112Z,33.96
2022-08-09T09:30:13.870Z,35.00
2022-08-09T09:32:35.131Z,33.34
2022-08-09T09:35:09.575Z,34.51
2022-08-09T09:37:40.702Z,34.88
2022-08-09T09:40:11.713Z,36.44
2022-08-09T09:42:43.059Z,35.18
2022-08-09T09:45:25.770Z,36.94
2022-08-09T09:47:58.734Z,34.30
2022-08-09T09:50:49.304Z,33.52
2022-08-09T09:53:34.385Z,32.61
2022-08-09T09:56:30.976Z,32.31
2022-08-09T09:58:57.453Z,33.51
2022-08-09T10:01:31.401Z,33.22
2022-08-09T10:04:16.309Z,32.55
2022-08-09T10:06:52.063Z,32.17
2022-08-09T10:09:24.050Z,32.18
2022-08-09T10:12:12.851Z,33.04
2022-08-09T10:14:48.452Z,33.49
2022-08-09T10:17:40.045Z,33.39
2022-08-09T10:20:27.747Z,32.49
2022-08-09T10:23:17.254Z,33.30
2022-08-09T10:26:06.266Z,34.47
2022-08-09T10:28:35.899Z,35.57
2022-08-09T10:34:10.344Z,33.02
2022-08-09T10:36:43.815Z,33.75
2022-08-09T10:39:16.015Z,34.99
2022-08-09T10:41:48.009Z,35.86
2022-08-09T10:44:19.280Z,33.13
2022-08-09T10:48:16.872Z,32.63
2022-08-09T10:50:14.607Z,32.95
2022-08-09T10:53:10.382Z,33.49
2022-08-09T10:55:58.216Z,32.83
2022-08-09T10:58:33.557Z,32.91
2022-08-09T11:03:03.250Z,32.11
2022-08-09T11:04:27.778Z,32.80
2022-08-09T11:07:57.217Z,33.76
2022-08-09T11:10:54.721Z,34.09
2022-08-09T11:13:51.295Z,34.82
2022-08-09T11:16:38.497Z,36.98
2022-08-09T11:19:10.525Z,36.28
2022-08-09T11:22:10.586Z,36.51
2022-08-09T11:25:08.434Z,35.92
2022-08-09T11:28:05.433Z,37.48
2022-08-09T11:30:35.796Z,34.27
2022-08-09T11:33:06.752Z,33.92
2022-08-09T11:35:49.457Z,34.18
2022-08-09T11:38:22.331Z,35.69
2022-08-09T11:40:57.381Z,36.77
2022-08-09T11:43:43.058Z,36.47
2022-08-09T11:46:12.187Z,36.10
2022-08-09T11:48:51.182Z,35.27
2022-08-09T11:53:00.983Z,34.05
2022-08-09T11:54:28.007Z,32.16
2022-08-09T11:57:59.674Z,33.09
2022-08-09T12:00:26.261Z,31.83
2022-08-09T12:02:56.505Z,32.42
2022-08-09T12:05:37.655Z,32.51
2022-08-09T12:08:12.514Z,33.02
2022-08-09T12:10:53.057Z,33.22
2022-08-09T12:14:07.508Z,33.08
2022-08-09T12:16:37.294Z,34.09
2022-08-09T12:19:10.063Z,32.60
2022-08-09T12:21:50.385Z,31.53
2022-08-09T12:24:24.423Z,31.15
2022-08-09T12:29:13.078Z,30.29
2022-08-09T12:30:01.608Z,30.26
2022-08-09T12:32:44.249Z,31.09
2022-08-09T12:35:19.450Z,31.61
2022-08-09T12:37:52.222Z,31.38
2022-08-09T12:40:26.822Z,32.42
2022-08-09T12:42:56.117Z,31.35
2022-08-09T12:45:34.704Z,30.19
2022-08-09T12:48:19.966Z,30.16
2022-08-09T12:50:57.134Z,30.22
2022-08-09T12:53:35.036Z,30.29
2022-08-09T12:56:43.283Z,30.44
2022-08-09T12:59:10.563Z,30.77
2022-08-09T13:01:48.969Z,31.51
2022-08-09T13:04:38.181Z,31.76
2022-08-09T13:07:16.371Z,31.04
2022-08-09T13:09:55.488Z,30.54
2022-08-09T13:12:28.195Z,30.59
2022-08-09T13:15:07.217Z,30.16
2022-08-09T13:18:03.544Z,29.96
2022-08-09T13:20:37.458Z,30.72
2022-08-09T13:24:15.830Z,30.38
2022-08-09T13:26:39.329Z,30.46
2022-08-09T13:29:09.593Z,30.28
2022-08-09T13:32:19.257Z,29.59
2022-08-09T13:34:44.085Z,29.37
2022-08-09T13:37:50.751Z,29.80
2022-08-09T13:41:46.067Z,29.29
2022-08-09T13:42:53.662Z,29.50
2022-08-09T13:45:32.641Z,30.17
2022-08-09T13:48:10.929Z,30.28
2022-08-09T13:50:39.276Z,30.61
2022-08-09T13:53:09.051Z,30.22
2022-08-09T13:55:38.152Z,30.26
2022-08-09T13:58:08.059Z,29.93
2022-08-09T14:00:50.385Z,29.74
2022-08-09T14:04:04.879Z,29.36
2022-08-09T14:06:19.342Z,29.82
2022-08-09T14:08:55.634Z,30.24
2022-08-09T14:11:23.452Z,30.00
2022-08-09T14:14:23.935Z,29.74
2022-08-09T14:16:40.384Z,30.00
2022-08-09T14:19:08.404Z,30.46
2022-08-09T14:21:36.693Z,30.01
2022-08-09T14:24:18.782Z,29.76
2022-08-09T14:26:54.981Z,29.42
2022-08-09T14:30:18.661Z,29.35
2022-08-09T14:32:13.291Z,29.43
2022-08-09T14:34:45.060Z,29.28
2022-08-09T14:37:13.173Z,29.49
2022-08-09T14:39:46.438Z,29.77
2022-08-09T14:42:39.232Z,30.43
2022-08-09T14:46:46.714Z,31.18
2022-08-09T14:48:00.359Z,31.82
2022-08-09T14:50:32.661Z,31.35
2022-08-09T14:53:01.237Z,30.54
2022-08-09T14:55:32.543Z,30.54
2022-08-09T14:58:02.850Z,29.63
2022-08-09T15:00:31.672Z,29.48
2022-08-09T15:03:00.080Z,29.12
2022-08-09T15:05:29.488Z,28.86
2022-08-09T15:07:58.177Z,29.20
2022-08-09T15:10:26.748Z,29.81
2022-08-09T15:12:56.814Z,30.13
2022-08-09T15:15:28.580Z,30.25
2022-08-09T15:17:58.567Z,30.76
2022-08-09T15:22:00.453Z,31.41
2022-08-09T15:24:03.094Z,30.50
2022-08-09T15:26:02.931Z,30.00
2022-08-09T15:28:34.731Z,29.51
2022-08-09T15:31:10.000Z,29.20
2022-08-09T15:34:17.190Z,29.59
2022-08-09T15:36:30.104Z,29.01
2022-08-09T15:39:00.119Z,29.06
2022-08-09T15:41:31.284Z,29.18
2022-08-09T15:44:01.905Z,29.24
2022-08-09T15:46:34.481Z,28.95
2022-08-09T15:49:21.792Z,28.53
2022-08-09T15:52:04.015Z,28.59
2022-08-09T15:54:48.991Z,29.06
2022-08-09T15:57:19.061Z,28.98
2022-08-09T16:00:06.987Z,29.11
2022-08-09T16:02:35.821Z,29.60
2022-08-09T16:05:06.741Z,29.67
2022-08-09T16:07:39.452Z,29.52
2022-08-09T16:10:38.383Z,29.70
2022-08-09T16:13:03.415Z,29.60
2022-08-09T16:16:10.446Z,29.58
2022-08-09T16:18:21.335Z,29.84
2022-08-09T16:20:50.556Z,29.47
2022-08-09T16:23:19.873Z,29.24
2022-08-09T16:25:49.768Z,29.44
2022-08-09T16:28:17.758Z,29.34
2022-08-09T16:30:58.733Z,29.06
2022-08-09T16:33:27.521Z,29.17
2022-08-09T16:36:02.096Z,29.10
2022-08-09T16:38:32.384Z,28.68
2022-08-09T16:41:04.053Z,28.89
2022-08-09T16:43:32.657Z,28.55
2022-08-09T16:46:02.197Z,28.86
2022-08-09T16:48:39.567Z,28.81
2022-08-09T16:51:18.957Z,28.58
2022-08-09T16:54:22.419Z,28.48
2022-08-09T16:56:37.517Z,28.38
2022-08-09T16:59:17.153Z,28.29
2022-08-09T17:01:51.395Z,27.74
2022-08-09T17:04:28.005Z,27.53
2022-08-09T17:08:41.464Z,27.50
2022-08-09T17:09:47.333Z,27.43
2022-08-09T17:12:16.022Z,27.35
2022-08-09T17:14:47.630Z,27.20
2022-08-09T17:17:27.223Z,27.25
2022-08-09T17:20:29.903Z,27.08
2022-08-09T17:22:50.057Z,27.04
2022-08-09T17:25:22.072Z,27.24
2022-08-09T17:27:54.549Z,27.11
2022-08-09T17:30:25.791Z,27.12
2022-08-09T17:33:00.684Z,27.17
2022-08-09T17:35:35.778Z,27.11
2022-08-09T17:38:30.595Z,27.11
2022-08-09T17:40:57.957Z,27.05
2022-08-09T17:43:34.270Z,27.03
2022-08-09T17:46:08.983Z,27.06
2022-08-09T17:48:46.738Z,27.08
2022-08-09T17:51:21.494Z,27.03
2022-08-09T17:53:53.018Z,26.87
2022-08-09T17:56:27.403Z,26.82
2022-08-09T17:58:56.732Z,26.74
2022-08-09T18:01:24.582Z,26.67
2022-08-09T18:03:54.896Z,26.65
2022-08-09T18:06:30.955Z,26.66
2022-08-09T18:08:59.866Z,26.70
2022-08-09T18:11:27.972Z,26.58
2022-08-09T18:14:03.349Z,26.56
2022-08-09T18:16:36.061Z,26.33
2022-08-09T18:20:56.143Z,26.34
2022-08-09T18:22:13.295Z,26.37
2022-08-09T18:24:46.022Z,26.12
2022-08-09T18:27:49.364Z,26.10
2022-08-09T18:30:40.268Z,26.03
2022-08-09T18:32:54.662Z,25.91
2022-08-09T18:35:58.337Z,25.83
2022-08-09T18:38:13.128Z,25.73
2022-08-09T18:40:41.087Z,25.78
2022-08-09T18:43:08.953Z,25.62
2022-08-09T18:46:51.089Z,25.48
2022-08-09T18:48:30.126Z,25.51
2022-08-09T18:51:02.166Z,25.46
2022-08-09T18:53:56.980Z,25.27
2022-08-09T18:56:20.062Z,25.25
2022-08-09T18:58:56.440Z,25.09
2022-08-09T19:01:24.868Z,24.98
2022-08-09T19:04:06.311Z,25.02
2022-08-09T19:06:38.527Z,24.87
2022-08-09T19:09:07.653Z,25.00
2022-08-09T19:11:39.770Z,25.01
2022-08-09T19:14:07.753Z,24.94
2022-08-09T19:16:38.057Z,24.89
2022-08-09T19:19:21.500Z,24.67
2022-08-09T19:22:04.837Z,24.70
2022-08-09T19:24:38.606Z,24.49
2022-08-09T19:27:23.261Z,24.35
2022-08-09T19:30:23.239Z,24.32
2022-08-09T19:32:39.099Z,24.24
2022-08-09T19:35:08.096Z,24.25
2022-08-09T19:37:54.602Z,24.09
2022-08-09T19:40:34.087Z,23.99
2022-08-09T19:43:03.874Z,23.81
2022-08-09T19:45:39.243Z,23.61
2022-08-09T19:48:10.801Z,23.41
2022-08-09T19:50:49.206Z,23.62
2022-08-09T19:53:21.113Z,23.44
2022-08-09T19:56:03.014Z,23.61
2022-08-09T19:58:34.226Z,23.28
2022-08-09T20:01:02.041Z,23.22
2022-08-09T20:04:17.443Z,23.20
2022-08-09T20:06:23.853Z,23.37
2022-08-09T20:08:59.856Z,23.10
2022-08-09T20:11:43.381Z,23.07
2022-08-09T20:14:16.945Z,23.14
2022-08-09T20:16:53.750Z,23.13
2022-08-09T20:19:48.175Z,23.08
2022-08-09T20:22:14.305Z,22.96
2022-08-09T20:24:53.429Z,22.84
2022-08-09T20:27:22.848Z,23.03
2022-08-09T20:29:52.611Z,23.02
2022-08-09T20:32:30.727Z,22.87
2022-08-09T20:35:02.328Z,22.69
2022-08-09T20:37:37.901Z,22.71
2022-08-09T20:40:26.833Z,22.56
2022-08-09T20:42:59.799Z,22.43
2022-08-09T20:45:59.169Z,22.32
2022-08-09T20:48:25.623Z,22.26
2022-08-09T20:50:58.621Z,22.12
2022-08-09T20:53:35.444Z,22.23
2022-08-09T20:56:09.438Z,22.21
2022-08-09T20:58:49.967Z,22.16
2022-08-09T21:01:35.199Z,22.19
2022-08-09T21:05:48.605Z,21.86
2022-08-09T21:06:54.989Z,21.79
2022-08-09T21:09:32.712Z,21.74
2022-08-09T21:14:42.569Z,21.56
2022-08-09T21:18:21.163Z,21.37
2022-08-09T21:20:22.435Z,21.35
2022-08-09T21:22:52.473Z,21.31
2022-08-09T21:25:43.734Z,21.26
2022-08-09T21:28:34.377Z,21.04
2022-08-09T21:31:13.734Z,20.92
2022-08-09T21:33:49.474Z,20.97
2022-08-09T21:36:20.377Z,20.88
2022-08-09T21:38:51.112Z,21.15
2022-08-09T21:42:04.148Z,20.87
2022-08-09T21:44:33.701Z,20.70
2022-08-09T21:47:03.848Z,20.93
2022-08-09T21:49:40.032Z,20.79
2022-08-09T21:52:14.459Z,20.61
2022-08-09T21:54:46.378Z,20.61
2022-08-09T21:57:37.720Z,20.39
2022-08-09T22:00:11.190Z,20.28
2022-08-09T22:02:40.014Z,20.23
2022-08-09T22:05:22.694Z,20.25
2022-08-09T22:07:53.281Z,20.27
2022-08-09T22:10:23.953Z,20.21
2022-08-09T22:12:52.855Z,20.09
2022-08-09T22:15:33.442Z,20.12
2022-08-09T22:18:03.478Z,20.07
2022-08-09T22:20:31.572Z,20.09
2022-08-09T22:22:59.691Z,20.05
2022-08-09T22:26:05.801Z,20.01
2022-08-09T22:28:29.427Z,20.03
2022-08-09T22:31:02.132Z,20.02
2022-08-09T22:33:48.518Z,20.01
2022-08-09T22:36:19.074Z,20.02
2022-08-09T22:38:48.216Z,20.01
2022-08-09T22:41:16.125Z,19.91
2022-08-09T22:44:03.040Z,19.71
2022-08-09T22:48:14.266Z,19.61
2022-08-09T22:49:21.895Z,19.51
2022-08-09T22:51:56.884Z,19.45
2022-08-09T22:54:27.309Z,19.37
2022-08-09T22:56:57.056Z,19.28
2022-08-09T22:59:56.023Z,19.12
2022-08-09T23:02:20.152Z,18.97
2022-08-09T23:04:54.060Z,18.93
2022-08-09T23:08:27.792Z,18.81
2022-08-09T23:10:29.062Z,18.68
2022-08-09T23:12:57.033Z,18.51
2022-08-09T23:15:25.182Z,18.38
2022-08-09T23:17:54.297Z,18.28
2022-08-09T23:20:22.614Z,18.25
2022-08-09T23:22:50.539Z,18.13
2022-08-09T23:25:18.630Z,18.05
2022-08-09T23:27:57.527Z,18.16
2022-08-09T23:30:34.447Z,18.18
2022-08-09T23:33:03.629Z,18.06
2022-08-09T23:35:31.695Z,17.94
2022-08-09T23:38:19.885Z,18.03
2022-08-09T23:40:51.177Z,17.94
2022-08-09T23:43:19.075Z,17.80
2022-08-09T23:45:46.984Z,17.70
2022-08-09T23:48:16.926Z,17.59
2022-08-09T23:50:44.754Z,17.57
2022-08-09T23:53:12.535Z,17.44
2022-08-09T23:55:46.238Z,17.45
2022-08-09T23:58:26.033Z,17.40
